Skip Navigation Links Skip Navigation Links

Current Weather

Mount Airy/Surry County, Mount Airy, N.C.

For information only: do not use for flight planning or navigation.
Latest weather
Observation time Wednesday, February 20, 2019 1:05 PM EST
Local time Wednesday, February 20, 2019 1:13 PM EST
Flight conditions Instrument Meteorological Conditions
Winds
Wind direction Northeast (40°)
Wind speed 3 mph
Visibility 2 mi.
Present weather rain
Sky condition
Ceiling 700 ft. broken clouds
Cloud layer broken clouds 700 ft.
Cloud layer overcast 1,100 ft.
Temperature 34°F
Dewpoint 32°F
Altimeter 30.30 in.Hg
Derived measurements
Relative humidity 92%
Wind chill 31°F
Density altitude -766 ft.
Remarks
Fully automated report.
Automated weather observing station with precipitation discriminator.
METAR KMWK 201805Z AUTO 04003KT 2SM RA BKN007 OVC011 01/00 A3030 RMK AO2 T00130001

Settings

Location code

InnerDrive.Weather 4.0.6770.0 Release CLR 4.0.30319.42000
Copyright ©2018 Inner Drive Technology. All rights reserved. Portions Copyright ©1986-2018 David Braverman.

Find weather

Site navigation


Skip Navigation Links

Place info

Page info

PayPal - The safer, easier way to pay online!

Return home.

Copyright ©2019 Inner Drive Technology. Purveyors of fine, hand-crafted computer software. Page printed 2019-02-20T18:13:45 UTC.